createdAt,value
2024-01-05T00:01:11.827Z,7.47
2024-01-05T00:04:17.081Z,7.87
2024-01-05T00:07:20.232Z,7.10
2024-01-05T00:10:23.597Z,7.03
2024-01-05T00:13:26.657Z,6.45
2024-01-05T00:16:30.182Z,5.80
2024-01-05T00:19:33.498Z,5.80
2024-01-05T00:22:36.840Z,6.10
2024-01-05T00:25:39.914Z,5.63
2024-01-05T00:28:43.425Z,7.80
2024-01-05T00:31:46.698Z,6.20
2024-01-05T00:34:50.173Z,4.93
2024-01-05T00:37:53.480Z,4.27
2024-01-05T00:40:57.942Z,5.28
2024-01-05T00:44:00.639Z,5.32
2024-01-05T00:47:03.909Z,5.55
2024-01-05T00:50:08.300Z,4.70
2024-01-05T00:53:11.782Z,5.65
2024-01-05T00:56:14.566Z,5.90
2024-01-05T00:59:20.727Z,4.97
2024-01-05T01:02:23.631Z,3.62
2024-01-05T01:05:27.111Z,3.53
2024-01-05T01:08:30.148Z,3.65
2024-01-05T01:11:33.217Z,3.30
2024-01-05T01:14:36.149Z,5.50
2024-01-05T01:17:39.412Z,3.12
2024-01-05T01:20:42.382Z,4.50
2024-01-05T01:23:45.621Z,5.93
2024-01-05T01:26:48.415Z,5.15
2024-01-05T01:29:51.896Z,3.67
2024-01-05T01:32:54.854Z,3.75
2024-01-05T01:35:58.352Z,3.50
2024-01-05T01:39:01.625Z,3.83
2024-01-05T01:42:05.890Z,3.45
2024-01-05T01:45:09.060Z,2.67
2024-01-05T01:48:12.499Z,2.20
2024-01-05T01:51:15.708Z,4.33
2024-01-05T01:54:19.296Z,3.95
2024-01-05T01:57:22.536Z,5.18
2024-01-05T02:00:26.232Z,4.85
2024-01-05T02:03:30.222Z,6.00
2024-01-05T02:06:34.606Z,6.23
2024-01-05T02:09:37.945Z,4.80
2024-01-05T02:12:40.895Z,5.32
2024-01-05T02:15:44.420Z,8.75
2024-01-05T02:18:54.040Z,7.43
2024-01-05T02:22:00.526Z,9.17
2024-01-05T02:25:03.474Z,6.62
2024-01-05T02:28:06.729Z,7.20
2024-01-05T02:31:09.791Z,6.80
2024-01-05T02:34:13.226Z,8.07
2024-01-05T02:37:16.334Z,7.77
2024-01-05T02:40:19.522Z,8.27
2024-01-05T02:43:23.015Z,7.45
2024-01-05T02:46:26.433Z,7.25
2024-01-05T02:49:29.369Z,7.20
2024-01-05T02:52:32.811Z,4.47
2024-01-05T02:55:35.832Z,4.00
2024-01-05T02:58:40.435Z,4.60
2024-01-05T03:01:43.307Z,6.12
2024-01-05T03:04:47.424Z,6.32
2024-01-05T03:07:50.681Z,5.80
2024-01-05T03:10:54.024Z,5.00
2024-01-05T03:13:57.328Z,4.50
2024-01-05T03:17:00.511Z,6.10
2024-01-05T03:20:03.773Z,4.93
2024-01-05T03:23:06.971Z,42.62
2024-01-05T03:26:11.152Z,39.17
2024-01-05T03:29:14.316Z,38.53
2024-01-05T03:32:17.485Z,21.77
2024-01-05T03:35:21.145Z,9.00
2024-01-05T03:38:24.342Z,10.13
2024-01-05T03:41:27.602Z,27.87
2024-01-05T03:44:30.995Z,29.75
2024-01-05T03:47:34.085Z,7.40
2024-01-05T03:50:36.819Z,15.43
2024-01-05T03:53:40.153Z,14.15
2024-01-05T03:56:44.578Z,9.02
2024-01-05T03:59:48.866Z,9.05
2024-01-05T04:02:51.791Z,10.80
2024-01-05T04:05:55.167Z,9.48
2024-01-05T04:08:58.336Z,7.57
2024-01-05T04:12:01.951Z,11.75
2024-01-05T04:15:05.988Z,19.27
2024-01-05T04:18:09.619Z,19.87
2024-01-05T04:21:12.666Z,14.43
2024-01-05T04:24:16.091Z,10.15
2024-01-05T04:27:19.117Z,14.68
2024-01-05T04:30:22.586Z,8.38
2024-01-05T04:33:25.856Z,8.40
2024-01-05T04:36:29.231Z,10.50
2024-01-05T04:39:32.172Z,8.20
2024-01-05T04:42:35.468Z,10.85
2024-01-05T04:45:38.406Z,8.20
2024-01-05T04:48:41.785Z,9.32
2024-01-05T04:51:45.084Z,12.10
2024-01-05T04:54:48.524Z,10.30
2024-01-05T04:57:51.463Z,7.87
2024-01-05T05:00:55.674Z,9.60
2024-01-05T05:03:58.650Z,8.27
2024-01-05T05:07:01.868Z,10.30
2024-01-05T05:10:05.200Z,9.10
2024-01-05T05:13:08.417Z,10.77
2024-01-05T05:16:11.477Z,10.40
2024-01-05T05:19:15.200Z,9.27
2024-01-05T05:22:18.455Z,7.40
2024-01-05T05:25:21.657Z,10.55
2024-01-05T05:28:24.945Z,10.13
2024-01-05T05:31:28.300Z,13.77
2024-01-05T05:34:31.407Z,9.65
2024-01-05T05:37:35.058Z,10.48
2024-01-05T05:40:38.452Z,11.32
2024-01-05T05:43:41.549Z,15.10
2024-01-05T05:46:44.501Z,12.50
2024-01-05T05:49:47.998Z,11.85
2024-01-05T05:52:52.888Z,13.10
2024-01-05T05:55:56.373Z,11.37
2024-01-05T05:58:59.331Z,13.45
2024-01-05T06:02:02.502Z,21.23
2024-01-05T06:05:09.461Z,22.10
2024-01-05T06:08:12.438Z,10.25
2024-01-05T06:11:20.061Z,14.02
2024-01-05T06:14:23.126Z,10.90
2024-01-05T06:17:26.614Z,15.07
2024-01-05T06:20:29.524Z,12.48
2024-01-05T06:23:33.654Z,10.30
2024-01-05T06:26:36.625Z,10.90
2024-01-05T06:29:40.240Z,11.32
2024-01-05T06:32:43.203Z,9.55
2024-01-05T06:35:46.844Z,10.07
2024-01-05T06:38:49.805Z,11.52
2024-01-05T06:41:53.190Z,11.60
2024-01-05T06:44:56.327Z,9.55
2024-01-05T06:48:00.329Z,8.63
2024-01-05T06:51:03.775Z,10.35
2024-01-05T06:54:07.637Z,21.50
2024-01-05T06:57:10.635Z,11.70
2024-01-05T07:00:14.955Z,12.85
2024-01-05T07:03:18.394Z,15.30
2024-01-05T07:06:22.215Z,20.10
2024-01-05T07:09:25.208Z,50.35
2024-01-05T07:12:31.594Z,26.50
2024-01-05T07:15:34.800Z,20.47
2024-01-05T07:18:39.394Z,15.60
2024-01-05T07:21:42.756Z,15.80
2024-01-05T07:24:46.229Z,17.95
2024-01-05T07:27:49.070Z,27.70
2024-01-05T07:30:55.720Z,69.05
2024-01-05T07:33:58.743Z,64.10
2024-01-05T07:37:01.953Z,47.95
2024-01-05T07:40:05.427Z,36.00
2024-01-05T07:43:10.604Z,42.53
2024-01-05T07:46:13.925Z,44.95
2024-01-05T07:49:17.751Z,38.78
2024-01-05T07:52:20.754Z,33.97
2024-01-05T07:55:24.721Z,37.00
2024-01-05T07:58:27.887Z,29.90
2024-01-05T08:01:31.334Z,24.58
2024-01-05T08:04:36.924Z,22.05
2024-01-05T08:07:40.040Z,20.27
2024-01-05T08:10:43.782Z,44.30
2024-01-05T08:13:47.894Z,44.08
2024-01-05T08:16:51.376Z,38.67
2024-01-05T08:19:57.552Z,29.92
2024-01-05T08:23:00.914Z,27.40
2024-01-05T08:26:08.007Z,29.33
2024-01-05T08:29:11.554Z,23.67
2024-01-05T08:32:14.425Z,23.80
2024-01-05T08:35:17.710Z,17.58
2024-01-05T08:38:20.580Z,15.63
2024-01-05T08:41:24.772Z,17.20
2024-01-05T08:44:29.877Z,18.07
2024-01-05T08:47:33.236Z,20.02
2024-01-05T08:50:36.650Z,16.35
2024-01-05T08:53:40.127Z,21.20
2024-01-05T08:56:43.219Z,20.70
2024-01-05T08:59:46.467Z,24.07
2024-01-05T09:02:49.312Z,21.45
2024-01-05T09:05:53.768Z,13.27
2024-01-05T09:09:00.923Z,10.50
2024-01-05T09:12:04.826Z,9.47
2024-01-05T09:15:10.298Z,10.10
2024-01-05T09:18:13.783Z,8.63
2024-01-05T09:21:20.309Z,8.02
2024-01-05T09:24:23.470Z,9.95
2024-01-05T09:27:26.627Z,7.83
2024-01-05T09:30:30.882Z,6.53
2024-01-05T09:33:34.200Z,7.78
2024-01-05T09:36:42.760Z,7.45
2024-01-05T09:39:46.606Z,5.93
2024-01-05T09:42:52.075Z,6.07
2024-01-05T09:45:59.171Z,4.67
2024-01-05T09:49:05.447Z,5.80
2024-01-05T09:52:09.131Z,7.93
2024-01-05T09:55:12.973Z,8.00
2024-01-05T09:58:19.530Z,6.30
2024-01-05T10:01:27.953Z,6.33
2024-01-05T10:04:32.531Z,5.68
2024-01-05T10:07:43.241Z,7.35
2024-01-05T10:11:00.643Z,4.37
2024-01-05T10:14:08.628Z,3.33
2024-01-05T10:17:13.034Z,5.47
2024-01-05T10:20:18.642Z,5.53
2024-01-05T10:23:24.826Z,6.10
2024-01-05T10:26:27.888Z,6.45
2024-01-05T10:29:34.129Z,3.40
2024-01-05T10:32:37.806Z,5.40
2024-01-05T10:35:41.734Z,5.55
2024-01-05T10:38:45.591Z,4.07
2024-01-05T10:41:48.884Z,4.15
2024-01-05T10:44:54.791Z,10.80
2024-01-05T10:47:59.528Z,5.07
2024-01-05T10:51:04.164Z,9.35
2024-01-05T10:54:08.752Z,3.72
2024-01-05T10:57:14.015Z,5.15
2024-01-05T11:00:18.410Z,8.93
2024-01-05T11:03:22.068Z,3.73
2024-01-05T11:06:26.293Z,10.15
2024-01-05T11:09:41.183Z,5.12
2024-01-05T11:13:01.135Z,3.30
2024-01-05T11:16:31.822Z,6.47
2024-01-05T11:20:13.921Z,13.97
2024-01-05T11:23:18.723Z,4.82
2024-01-05T11:26:43.765Z,6.75
2024-01-05T11:29:46.887Z,3.95
2024-01-05T11:32:51.262Z,5.27
2024-01-05T11:35:55.053Z,20.00
2024-01-05T11:38:58.494Z,3.55
2024-01-05T11:42:01.828Z,3.95
2024-01-05T11:45:11.419Z,4.72
2024-01-05T11:48:40.748Z,9.23
2024-01-05T11:51:44.155Z,6.13
2024-01-05T11:55:12.421Z,9.38
2024-01-05T11:58:23.544Z,8.95
2024-01-05T12:01:29.392Z,6.47
2024-01-05T12:04:47.322Z,5.93
2024-01-05T12:07:56.563Z,8.23
2024-01-05T12:11:05.112Z,10.50
2024-01-05T12:14:08.227Z,7.32
2024-01-05T12:17:15.541Z,6.05
2024-01-05T12:20:19.518Z,5.40
2024-01-05T12:23:23.071Z,8.20
2024-01-05T12:26:26.811Z,5.97
2024-01-05T12:29:30.932Z,7.62
2024-01-05T12:32:37.294Z,8.25
2024-01-05T12:35:44.858Z,6.70
2024-01-05T12:38:47.958Z,9.93
2024-01-05T12:41:54.082Z,6.40
2024-01-05T12:44:56.804Z,7.37
2024-01-05T12:48:11.097Z,5.05
2024-01-05T12:51:25.607Z,7.03
2024-01-05T12:54:28.944Z,4.93
2024-01-05T12:57:35.307Z,8.57
2024-01-05T13:00:45.180Z,6.75
2024-01-05T13:03:55.982Z,7.30
2024-01-05T13:06:59.614Z,7.67
2024-01-05T13:10:05.120Z,6.37
2024-01-05T13:13:08.411Z,9.18
2024-01-05T13:16:11.400Z,6.75
2024-01-05T13:19:18.130Z,7.28
2024-01-05T13:22:21.056Z,10.93
2024-01-05T13:25:25.039Z,11.60
2024-01-05T13:28:29.112Z,17.05
2024-01-05T13:31:32.417Z,56.65
2024-01-05T13:34:36.943Z,25.73
2024-01-05T13:37:40.862Z,17.03
2024-01-05T13:40:43.827Z,14.27
2024-01-05T13:43:48.449Z,14.90
2024-01-05T13:46:52.067Z,22.77
2024-01-05T13:49:58.272Z,21.87
2024-01-05T13:53:05.324Z,12.53
2024-01-05T13:56:08.930Z,13.17
2024-01-05T13:59:11.916Z,7.78
2024-01-05T14:02:15.023Z,10.02
2024-01-05T14:05:21.609Z,8.70
2024-01-05T14:08:24.531Z,11.67
2024-01-05T14:11:28.056Z,11.90
2024-01-05T14:14:30.987Z,10.80
2024-01-05T14:17:34.653Z,10.90
2024-01-05T14:20:38.060Z,11.55
2024-01-05T14:23:41.593Z,12.60
2024-01-05T14:26:49.348Z,15.73
2024-01-05T14:29:54.618Z,11.82
2024-01-05T14:32:59.222Z,15.82
2024-01-05T14:36:06.140Z,16.45
2024-01-05T14:39:11.488Z,16.10
2024-01-05T14:42:14.655Z,15.17
2024-01-05T14:45:17.653Z,10.95
2024-01-05T14:48:23.063Z,10.38
2024-01-05T14:51:26.497Z,11.00
2024-01-05T14:54:30.415Z,13.90
2024-01-05T14:57:33.989Z,18.40
2024-01-05T15:00:37.478Z,12.32
2024-01-05T15:03:41.371Z,12.50
2024-01-05T15:06:44.806Z,10.95
2024-01-05T15:09:48.306Z,12.20
2024-01-05T15:12:54.238Z,14.17
2024-01-05T15:16:00.082Z,11.88
2024-01-05T15:19:07.388Z,11.40
2024-01-05T15:22:10.894Z,7.07
2024-01-05T15:25:16.627Z,18.27
2024-01-05T15:28:20.491Z,13.10
2024-01-05T15:31:23.919Z,9.18
2024-01-05T15:34:27.323Z,10.98
2024-01-05T15:37:32.968Z,6.78
2024-01-05T15:40:38.637Z,11.67
2024-01-05T15:43:42.744Z,13.60
2024-01-05T15:46:45.569Z,8.32
2024-01-05T15:49:49.021Z,17.98
2024-01-05T15:52:52.198Z,11.80
2024-01-05T15:55:58.998Z,9.23
2024-01-05T15:59:03.714Z,11.20
2024-01-05T16:02:08.934Z,12.93
2024-01-05T16:05:12.366Z,6.32
2024-01-05T16:08:15.461Z,10.88
2024-01-05T16:11:18.650Z,12.33
2024-01-05T16:14:21.924Z,8.15
2024-01-05T16:17:25.138Z,9.48
2024-01-05T16:20:28.364Z,9.32
2024-01-05T16:23:32.124Z,6.43
2024-01-05T16:26:35.291Z,9.90
2024-01-05T16:29:38.640Z,9.38
2024-01-05T16:32:43.642Z,15.75
2024-01-05T16:35:46.983Z,9.57
2024-01-05T16:38:50.467Z,8.07
2024-01-05T16:41:54.070Z,8.93
2024-01-05T16:44:56.909Z,10.32
2024-01-05T16:48:00.013Z,11.45
2024-01-05T16:51:03.059Z,12.32
2024-01-05T16:54:07.124Z,13.07
2024-01-05T16:57:10.385Z,11.20
2024-01-05T17:00:14.285Z,9.88
2024-01-05T17:03:17.718Z,10.68
2024-01-05T17:06:22.164Z,11.93
2024-01-05T17:09:25.273Z,9.75
2024-01-05T17:12:28.674Z,7.47
2024-01-05T17:15:32.418Z,10.75
2024-01-05T17:18:38.213Z,14.30
2024-01-05T17:21:42.454Z,15.35
2024-01-05T17:24:46.695Z,9.18
2024-01-05T17:27:49.632Z,12.93
2024-01-05T17:30:52.842Z,7.93
2024-01-05T17:33:57.326Z,13.85
2024-01-05T17:37:00.977Z,12.73
2024-01-05T17:40:04.933Z,7.82
2024-01-05T17:43:10.758Z,10.93
2024-01-05T17:46:13.916Z,7.25
2024-01-05T17:49:17.817Z,8.55
2024-01-05T17:52:22.073Z,14.68
2024-01-05T17:55:26.145Z,9.52
2024-01-05T17:58:29.415Z,13.40
2024-01-05T18:01:33.965Z,13.90
2024-01-05T18:04:37.575Z,17.30
2024-01-05T18:07:42.543Z,13.77
2024-01-05T18:10:46.064Z,13.25
2024-01-05T18:13:48.923Z,9.27
2024-01-05T18:16:53.237Z,10.25
2024-01-05T18:19:56.974Z,10.43
2024-01-05T18:23:00.477Z,9.73
2024-01-05T18:26:04.795Z,14.77
2024-01-05T18:29:17.137Z,9.90
2024-01-05T18:32:28.092Z,9.88
2024-01-05T18:35:32.092Z,6.25
2024-01-05T18:38:35.239Z,9.85
2024-01-05T18:41:39.881Z,10.20
2024-01-05T18:44:43.261Z,8.40
2024-01-05T18:47:46.416Z,11.75
2024-01-05T18:50:49.645Z,12.35
2024-01-05T18:53:53.046Z,11.50
2024-01-05T18:56:56.157Z,9.80
2024-01-05T18:59:59.573Z,11.40
2024-01-05T19:03:03.137Z,7.95
2024-01-05T19:06:06.869Z,11.30
2024-01-05T19:09:12.709Z,11.25
2024-01-05T19:12:17.414Z,10.17
2024-01-05T19:15:20.501Z,10.67
2024-01-05T19:18:24.012Z,8.90
2024-01-05T19:21:27.654Z,10.13
2024-01-05T19:24:30.984Z,9.27
2024-01-05T19:27:33.962Z,8.13
2024-01-05T19:30:37.439Z,9.50
2024-01-05T19:33:40.455Z,10.02
2024-01-05T19:36:47.704Z,9.30
2024-01-05T19:39:50.844Z,9.98
2024-01-05T19:42:54.449Z,8.00
2024-01-05T19:45:58.054Z,7.90
2024-01-05T19:49:01.790Z,8.98
2024-01-05T19:52:06.747Z,10.52
2024-01-05T19:55:10.018Z,7.47
2024-01-05T19:58:13.701Z,7.20
2024-01-05T20:01:18.432Z,9.40
2024-01-05T20:04:25.628Z,11.45
2024-01-05T20:07:29.370Z,11.55
2024-01-05T20:10:32.642Z,8.65
2024-01-05T20:13:35.410Z,8.17
2024-01-05T20:16:39.418Z,11.10
2024-01-05T20:19:43.320Z,11.90
2024-01-05T20:22:46.839Z,9.32
2024-01-05T20:25:50.105Z,8.48
2024-01-05T20:28:53.992Z,11.23
2024-01-05T20:31:57.605Z,11.20
2024-01-05T20:35:00.791Z,8.43
2024-01-05T20:38:04.515Z,9.55
2024-01-05T20:41:10.927Z,11.82
2024-01-05T20:44:16.130Z,9.60
2024-01-05T20:47:20.799Z,9.93
2024-01-05T20:50:23.922Z,11.55
2024-01-05T20:53:27.189Z,15.90
2024-01-05T20:56:30.256Z,17.37
2024-01-05T20:59:33.906Z,13.13
2024-01-05T21:02:36.817Z,10.67
2024-01-05T21:05:40.820Z,12.10
2024-01-05T21:08:44.382Z,11.70
2024-01-05T21:11:48.025Z,14.05
2024-01-05T21:14:50.805Z,14.23
2024-01-05T21:17:54.218Z,9.10
2024-01-05T21:20:58.912Z,11.18
2024-01-05T21:24:04.254Z,14.85
2024-01-05T21:27:07.387Z,14.27
2024-01-05T21:33:32.397Z,8.83
2024-01-05T21:36:36.241Z,11.77
2024-01-05T21:39:39.624Z,13.52
2024-01-05T21:42:43.403Z,12.35
2024-01-05T21:45:46.873Z,11.63
2024-01-05T21:48:50.243Z,10.07
2024-01-05T21:51:55.196Z,14.25
2024-01-05T21:54:58.948Z,15.13
2024-01-05T21:58:02.322Z,11.27
2024-01-05T22:01:06.863Z,8.90
2024-01-05T22:04:11.125Z,10.33
2024-01-05T22:07:14.182Z,10.88
2024-01-05T22:10:17.911Z,10.45
2024-01-05T22:13:21.582Z,10.10
2024-01-05T22:16:25.001Z,11.83
2024-01-05T22:19:28.429Z,9.47
2024-01-05T22:22:31.822Z,13.40
2024-01-05T22:25:36.477Z,9.85
2024-01-05T22:28:39.687Z,13.00
2024-01-05T22:31:44.667Z,8.83
2024-01-05T22:34:48.591Z,13.23
2024-01-05T22:37:51.710Z,10.38
2024-01-05T22:40:56.461Z,12.60
2024-01-05T22:43:59.668Z,12.35
2024-01-05T22:47:06.163Z,9.17
2024-01-05T22:50:09.953Z,8.83
2024-01-05T22:53:13.875Z,10.43
2024-01-05T22:56:19.657Z,9.18
2024-01-05T22:59:22.850Z,8.57
2024-01-05T23:02:27.570Z,9.83
2024-01-05T23:05:30.929Z,9.30
2024-01-05T23:08:33.642Z,10.27
2024-01-05T23:11:36.988Z,10.07
2024-01-05T23:14:39.839Z,8.60
2024-01-05T23:17:43.236Z,11.43
2024-01-05T23:20:46.410Z,8.53
2024-01-05T23:23:50.053Z,13.95
2024-01-05T23:26:53.095Z,10.63
2024-01-05T23:29:56.230Z,10.40
2024-01-05T23:32:59.674Z,10.07
2024-01-05T23:36:03.821Z,10.40
2024-01-05T23:39:06.800Z,9.27
2024-01-05T23:42:10.641Z,12.68
2024-01-05T23:45:15.132Z,9.45
2024-01-05T23:48:19.064Z,9.40
2024-01-05T23:51:21.951Z,10.43
2024-01-05T23:54:25.257Z,9.65
2024-01-05T23:57:28.882Z,9.60
